Address 0xf5cf96ccc46751557bb1b90d3987969da7a30e48 2

Txn Hash Method
Block
From
To
Value [Txn Fee]
0x095cba1010575fd194d279cc70fb8a449fb501e9a7f1ea290a73e76f01e0b23bToken Sale111685582021-08-03 22:06:2951 days 11 hrs ago0xf5cf96ccc46751557bb1b90d3987969da7a30e48OUT 0x794a8495941fddf9e912e7a921850af1fd3c02a50.01 BNB0.0006027
0xc6c2728b242e53b6e77de7c8a68a2ce59856b7b90b522e892ed9024ae88093ccGet Airdrop111685462021-08-03 22:05:5351 days 11 hrs ago0xf5cf96ccc46751557bb1b90d3987969da7a30e48OUT 0x794a8495941fddf9e912e7a921850af1fd3c02a50.003 BNB0.00061636
0x90eb8a2b5724363717a717c4383fe47c4594677201cd2cf1d9d7751660a9b7d3Token Sale111681622021-08-03 21:46:4151 days 12 hrs ago0xf5cf96ccc46751557bb1b90d3987969da7a30e48OUT 0x794a8495941fddf9e912e7a921850af1fd3c02a50.01 BNB0.0006027
0xcce3b08e0d4d663a3322b96705b8fd161d454e69960f6d4da9b068ddc8a1a120Get Airdrop111681242021-08-03 21:44:4751 days 12 hrs ago0xf5cf96ccc46751557bb1b90d3987969da7a30e48OUT 0x794a8495941fddf9e912e7a921850af1fd3c02a50.003 BNB0.00061636
0xd2cf9fd37de0939bd25bd81193d5b60f50c9c6e700dd062991965e0319bb5b1cTransfer111680672021-08-03 21:41:5651 days 12 hrs ago0xaa25aa7a19f9c426e07dee59b12f944f4d9f1dd3 IN 0xf5cf96ccc46751557bb1b90d3987969da7a30e481 BNB0.000378
0x6e5e05492a8cd79be280ea5a8c95f7e84f09556f67a36ec3c81e625ab8c6a851Get Airdrop111680202021-08-03 21:39:3551 days 12 hrs ago0xf5cf96ccc46751557bb1b90d3987969da7a30e48OUT 0x794a8495941fddf9e912e7a921850af1fd3c02a50.003 BNB0.00039938
0x35f7d3e1faae99c2497a683805987af997cb3d31483b46fa22f6383925467a54Token Sale111678952021-08-03 21:33:2051 days 12 hrs ago0xf5cf96ccc46751557bb1b90d3987969da7a30e48OUT 0x794a8495941fddf9e912e7a921850af1fd3c02a50.01 BNB0.00070173
0xd4e75a1066ea247f15b8b79385112c269d7d449605b2cc42f49fbd2f51a2ffa8Get Airdrop111678582021-08-03 21:31:2951 days 12 hrs ago0xf5cf96ccc46751557bb1b90d3987969da7a30e48OUT 0x794a8495941fddf9e912e7a921850af1fd3c02a50 BNB0.00023402
0x59065c6ed2e4afc139631ed9afa9fef3a7afb9b359dd19bed512623f2e6368a20x6c01431e111677512021-08-03 21:26:0851 days 12 hrs ago0xf5cf96ccc46751557bb1b90d3987969da7a30e48OUT Contract Creation0 BNB0.0151272
0x86bffb99219e4001c4f6c264ff9409080eba01bd6b897737113ed6dec9f00c29Token Sale111387072021-08-02 21:13:5552 days 12 hrs ago0xf5cf96ccc46751557bb1b90d3987969da7a30e48OUT0x2701442f4ce1a17debeb2f21718973a9c1ca25340.01 BNB0.00021432
0xfebc9d05ee6e84ad3aba460b16f2102bdfbe841e688e696ef2716109f4e625f00x6c01431e111384302021-08-02 21:00:0452 days 13 hrs ago0xf5cf96ccc46751557bb1b90d3987969da7a30e48OUT Contract Creation0 BNB0.01512732
0x2a007d6856492fb0fb6739c775e27a1529ab2fb26da8f481226fb2426cdf77feApprove110947282021-08-01 8:34:5154 days 1 hr ago0xf5cf96ccc46751557bb1b90d3987969da7a30e48OUT 0xb0dfd28d3cf7a5897c694904ace292539242f8580 BNB0.00047772
0xdb9d6837bc417eb572f74841a069774ecac54427a1ebec6cbe24939eaa89e140Airdrop110830702021-07-31 22:51:5754 days 11 hrs ago0xf5cf96ccc46751557bb1b90d3987969da7a30e48OUT 0x3077acce84ed9c7ddd4144fd3e7191747ab2c5470.003 BNB0.00063545
0x8a894beda54634bfa4fcad434f3bdbb413a00954737920b44ce12ab896e397a3Set110830662021-07-31 22:51:4554 days 11 hrs ago0xf5cf96ccc46751557bb1b90d3987969da7a30e48OUT 0x3077acce84ed9c7ddd4144fd3e7191747ab2c5470 BNB0.00019545
0xe3a39defe9107295f996cead98afdebc7568f5a586903500917a468b246355d7Auth Num110830622021-07-31 22:51:3354 days 11 hrs ago0xf5cf96ccc46751557bb1b90d3987969da7a30e48OUT 0x3077acce84ed9c7ddd4144fd3e7191747ab2c5470 BNB0.00042458
0x4d1ed08db4173d47f28dfa6c48214a822e665773a1b3cc61c21107257e21a297Set110830432021-07-31 22:50:3654 days 11 hrs ago0xf5cf96ccc46751557bb1b90d3987969da7a30e48OUT 0x3077acce84ed9c7ddd4144fd3e7191747ab2c5470 BNB0.00019533
0xb9cd1aa74fe6d86274736c8858a6ddb5a9f9c59c7833d079e8b827cf705c6beaAuth Num110830202021-07-31 22:49:2754 days 11 hrs ago0xf5cf96ccc46751557bb1b90d3987969da7a30e48OUT 0x3077acce84ed9c7ddd4144fd3e7191747ab2c5470 BNB0.00042458
0x8e6ac9f1167fa8be4d61dc3febfdca7f4d54e1d3d8d9db952d6a307e057dc674Swap Liquidity110829202021-07-31 22:44:2754 days 11 hrs ago0xf5cf96ccc46751557bb1b90d3987969da7a30e48OUT 0x3077acce84ed9c7ddd4144fd3e7191747ab2c5470 BNB0.00020585
0x78ab23ab9ea3a0ebd8fdb787c8635cdd53a3c6fd4766e20f64035f5e792d3bdbAuth Num110828992021-07-31 22:43:2454 days 11 hrs ago0xf5cf96ccc46751557bb1b90d3987969da7a30e48OUT 0x3077acce84ed9c7ddd4144fd3e7191747ab2c5470 BNB0.0004247
0x614c54b6128160580e4b3811defed1cf43bc7dd3fab99c59898ad5ae9fbaa0adSet Auth110828822021-07-31 22:42:3354 days 11 hrs ago0xf5cf96ccc46751557bb1b90d3987969da7a30e48OUT 0x3077acce84ed9c7ddd4144fd3e7191747ab2c5470 BNB0.00066807
0xf2867de670a505268e5532cf879bf4bcace43fd50f8bfff603dd60206d532904Auth Num110828222021-07-31 22:39:3354 days 11 hrs ago0xf5cf96ccc46751557bb1b90d3987969da7a30e48OUT 0x3077acce84ed9c7ddd4144fd3e7191747ab2c5470 BNB0.00022486
0x26611d5a51f24b0138b8e56270b23e9a094162a07efcd1a5ebfa0ba765ff95bbApprove110826702021-07-31 22:31:5754 days 11 hrs ago0xf5cf96ccc46751557bb1b90d3987969da7a30e48OUT 0x3077acce84ed9c7ddd4144fd3e7191747ab2c5470 BNB0.00044197
0xcaeb5e90ddb03628a7d75cb000b41ef78f024dbc9e06af8457d790738ef1db35Approve110826142021-07-31 22:29:0954 days 11 hrs ago0xf5cf96ccc46751557bb1b90d3987969da7a30e48OUT 0x3077acce84ed9c7ddd4144fd3e7191747ab2c5470 BNB0.00044197
0x260e672fb0ea059157cb83a4706a99aec50aef19b13ac2d8d9ac073492d8f1f3Approve110825442021-07-31 22:25:3954 days 11 hrs ago0xf5cf96ccc46751557bb1b90d3987969da7a30e48OUT 0x3077acce84ed9c7ddd4144fd3e7191747ab2c5470 BNB0.00044197
0x832f04692b7c9f8a40659911b4bbb793f9f933bd94a98cf7ecd54f29f99f08bfTransfer From110824602021-07-31 22:21:2754 days 11 hrs ago0xf5cf96ccc46751557bb1b90d3987969da7a30e48OUT 0x3077acce84ed9c7ddd4144fd3e7191747ab2c5470 BNB0.00038205
[ Download CSV Export 
Latest 1 internal transaction
Parent Txn Hash Block From To Value
0x8e6ac9f1167fa8be4d61dc3febfdca7f4d54e1d3d8d9db952d6a307e057dc674110829202021-07-31 22:44:2754 days 11 hrs ago 0x3077acce84ed9c7ddd4144fd3e7191747ab2c5470xf5cf96ccc46751557bb1b90d3987969da7a30e480.0432 BNB
[ Download CSV Export 
Loading

Contract Name:
0 BNB

Compiler Version
0

Optimization Enabled:
0 BNB

Other Settings:
-NA-
Block Transaction Gas Used Reward
Age Block Fee Address BC Fee Address Voting Power Jailed Incoming
Block Uncle Number Difficulty Gas Used Reward
Loading